Kasagimaru — JJ3905 — position and weather

sailwx.info

Track history (hours):
 
Tides and Currents Weather Stations Pressure Air Temp Water Temp Dewpoint Dewpoint Depression Visibility Wind Speed Wind Dir Waves Ship Positions

Kasagimaru

Last reported at 2017-Jan-21 21:33 UTC. Time now 2017-Jan-21 21:42 UTC.
Position N 34°33' E 135°27'.

Length 42 m; draft 3.5 m.

Type: Tug. MMSI: 431300268.

Date/timePositionNaut miles runAvg speedWind from/ knotsBaromVisibWave heightAir tempDewpointWater temp
2017-Jan-21 21:33N 34°33' E 135°27'0 0.0
2017-Jan-21 20:33N 34°33' E 135°27'0 0.0
2017-Jan-21 17:30N 34°33' E 135°27'0 0.0
2017-Jan-21 09:30N 34°33' E 135°27'0 0.0
2017-Jan-21 08:33N 34°33' E 135°27'0 0.0
2017-Jan-21 07:33N 34°33' E 135°27'0 0.0
2017-Jan-21 06:32N 34°33' E 135°27'2 1.6
2017-Jan-21 05:26N 34°33' E 135°24'1 0.6
2017-Jan-21 04:26N 34°34' E 135°24'1 0.9
2017-Jan-21 03:33N 34°33' E 135°24'9 8.9
2017-Jan-21 02:33N 34°30' E 135°14'1412.9
2017-Jan-21 01:28N 34°20' E 135°02'1010.8
2017-Jan-21 00:33N 34°10' E 135°01'7 3.6
2017-Jan-20 22:33N 34°13' E 135°09'0 0.0
2017-Jan-20 21:33N 34°13' E 135°09'0 0.0
2017-Jan-20 20:33N 34°13' E 135°09'0 0.0
2017-Jan-20 19:33N 34°13' E 135°09'0 0.0
2017-Jan-20 18:33N 34°13' E 135°09'0 0.0
2017-Jan-20 17:33N 34°13' E 135°09'0 0.0
2017-Jan-20 16:33N 34°13' E 135°09'0 0.0
2017-Jan-20 15:33N 34°13' E 135°09'0 0.0
2017-Jan-20 14:33N 34°13' E 135°09'0 0.0
2017-Jan-20 13:33N 34°13' E 135°09'0 0.0
2017-Jan-20 12:33N 34°13' E 135°09'0 0.0
2017-Jan-20 11:33N 34°13' E 135°09'0 0.0
2017-Jan-20 10:33N 34°13' E 135°09'0 0.0
2017-Jan-20 09:33N 34°13' E 135°09'0 0.0
2017-Jan-20 08:33N 34°13' E 135°09'0 0.0
2017-Jan-20 07:33N 34°13' E 135°09'0 0.0
2017-Jan-20 06:33N 34°13' E 135°09'0 0.0
2017-Jan-20 05:33N 34°13' E 135°09'0 0.0
2017-Jan-20 04:33N 34°13' E 135°09'0 0.0
2017-Jan-20 03:34N 34°13' E 135°09'0 0.0
2017-Jan-20 02:33N 34°13' E 135°09'0 0.0
2017-Jan-20 01:33N 34°13' E 135°09'0 0.0
2017-Jan-20 00:33N 34°13' E 135°09'0 0.0
2017-Jan-19 23:33N 34°13' E 135°09'0 0.0
2017-Jan-19 22:33N 34°13' E 135°09'0 0.0
2017-Jan-19 21:33N 34°13' E 135°09'0 0.0
2017-Jan-19 20:33N 34°13' E 135°09'0 0.0
2017-Jan-19 19:33N 34°13' E 135°09'0 0.0
2017-Jan-19 18:33N 34°13' E 135°09'0 0.0
2017-Jan-19 17:33N 34°13' E 135°09'0 0.0
2017-Jan-19 16:33N 34°13' E 135°09'0 0.0
2017-Jan-19 15:33N 34°13' E 135°09'0 0.0
2017-Jan-19 14:33N 34°13' E 135°09'0 0.0
2017-Jan-19 13:33N 34°13' E 135°09'0 0.0
2017-Jan-19 12:33N 34°13' E 135°09'0 0.0
2017-Jan-19 11:33N 34°13' E 135°09'4 4.1
2017-Jan-19 10:33N 34°14' E 135°04'2010.1
2017-Jan-19 08:32N 34°34' E 135°06'8 1.8
2017-Jan-19 04:27N 34°38' E 134°58'1112.7
2017-Jan-19 03:33N 34°35' E 135°12'1211.7
2017-Jan-19 02:33N 34°33' E 135°26'1 0.2
2017-Jan-18 23:23N 34°33' E 135°27'0 0.0
2017-Jan-18 21:27N 34°33' E 135°27'0 0.0
2017-Jan-18 20:33N 34°33' E 135°27'0 0.0
2017-Jan-18 19:33N 34°33' E 135°27'0 0.0
2017-Jan-18 18:33N 34°33' E 135°27'0 0.0
2017-Jan-18 17:24N 34°33' E 135°27'0 0.0
2017-Jan-18 16:13N 34°33' E 135°27'0 0.0
2017-Jan-18 15:33N 34°33' E 135°27'0 0.0
2017-Jan-18 14:30N 34°33' E 135°27'0 0.0
2017-Jan-18 07:19N 34°33' E 135°27'1 0.8
2017-Jan-18 05:29N 34°33' E 135°25'4 4.3
2017-Jan-18 04:33N 34°33' E 135°20'3 2.9
2017-Jan-18 03:33N 34°32' E 135°23'1 0.4
2017-Jan-18 00:33N 34°33' E 135°23'2 1.6
2017-Jan-17 23:33N 34°33' E 135°25'1 0.9
2017-Jan-17 22:13N 34°33' E 135°27'0 0.0
2017-Jan-17 15:18N 34°33' E 135°27'0 0.0
2017-Jan-17 14:31N 34°33' E 135°27'0 0.0
2017-Jan-17 13:25N 34°33' E 135°27'0 0.0
2017-Jan-17 12:07N 34°33' E 135°27'0 0.0
2017-Jan-17 06:31N 34°33' E 135°26'14 3.6
2017-Jan-17 02:33N 34°28' E 135°10'1111.1
2017-Jan-17 01:33N 34°33' E 135°22'2 1.6
2017-Jan-17 00:28N 34°34' E 135°24'1 1.0
2017-Jan-16 23:33N 34°33' E 135°24'1 1.3
2017-Jan-16 22:25N 34°32' E 135°24'1 0.6
2017-Jan-16 21:28N 34°32' E 135°24'2 2.6
2017-Jan-16 20:32N 34°33' E 135°27'0 0.0
2017-Jan-16 19:28N 34°33' E 135°27'0 0.0
2017-Jan-16 18:30N 34°33' E 135°27'0 0.0
2017-Jan-16 17:33N 34°33' E 135°27'0 0.0
2017-Jan-16 16:32N 34°33' E 135°27'0 0.0
2017-Jan-16 15:33N 34°33' E 135°27'0 0.0
2017-Jan-16 14:31N 34°33' E 135°27'0 0.0
2017-Jan-16 13:33N 34°33' E 135°27'0 0.0
2017-Jan-16 12:33N 34°33' E 135°27'0 0.0
2017-Jan-16 11:33N 34°33' E 135°27'0 0.0
2017-Jan-16 10:33N 34°33' E 135°27'0 0.0
2017-Jan-16 09:33N 34°33' E 135°27'5 5.0
2017-Jan-16 08:33N 34°37' E 135°23'3 2.9
2017-Jan-16 07:34N 34°39' E 135°25'0 0.3
2017-Jan-16 06:33N 34°39' E 135°26'0 0.0
2017-Jan-16 05:33N 34°39' E 135°26'0 0.0
2017-Jan-16 04:34N 34°39' E 135°26'0 0.0
2017-Jan-16 03:26N 34°39' E 135°26'2 1.9
2017-Jan-16 02:34N 34°38' E 135°24'0 0.1
2017-Jan-16 01:33N 34°38' E 135°24'5 4.1
2017-Jan-16 00:26N 34°33' E 135°23'0 0.2
2017-Jan-15 23:33N 34°33' E 135°23'4 3.9
2017-Jan-15 22:30N 34°29' E 135°22'0 0.1
2017-Jan-15 21:24N 34°29' E 135°22'5 5.8
2017-Jan-15 20:28N 34°33' E 135°27'0 0.0
2017-Jan-15 19:33N 34°33' E 135°27'0 0.0
2017-Jan-15 18:31N 34°33' E 135°27'0 0.0
2017-Jan-15 17:32N 34°33' E 135°27'0 0.0
2017-Jan-15 16:33N 34°33' E 135°27'0 0.0
2017-Jan-15 15:33N 34°33' E 135°27'0 0.0
2017-Jan-15 14:33N 34°33' E 135°27'0 0.0
2017-Jan-15 13:33N 34°33' E 135°27'0 0.0
2017-Jan-15 12:30N 34°33' E 135°27'0 0.0
2017-Jan-15 11:17N 34°33' E 135°27'0 0.0
2017-Jan-15 10:32N 34°33' E 135°27'0 0.0
2017-Jan-15 09:29N 34°33' E 135°27'0 0.1
2017-Jan-15 06:26N 34°33' E 135°27'2 2.0
2017-Jan-15 05:30N 34°33' E 135°24'3 2.7
2017-Jan-15 04:28N 34°33' E 135°21'2 1.9
2017-Jan-15 03:33N 34°33' E 135°23'3 2.7
2017-Jan-15 02:27N 34°33' E 135°27'1 0.7
2017-Jan-15 01:33N 34°33' E 135°26'1 0.1
2017-Jan-14 21:10N 34°33' E 135°27'0 0.0
2017-Jan-14 19:32N 34°33' E 135°27'0 0.0
2017-Jan-14 18:30N 34°33' E 135°27'0 0.0
2017-Jan-14 17:28N 34°33' E 135°27'0 0.0
2017-Jan-14 16:32N 34°33' E 135°27'0 0.0
2017-Jan-14 15:30N 34°33' E 135°27'0 0.0
2017-Jan-14 06:33N 34°33' E 135°27'0 0.0
2017-Jan-14 05:33N 34°33' E 135°27'0 0.0
2017-Jan-14 04:33N 34°33' E 135°27'0 0.0
2017-Jan-14 03:32N 34°33' E 135°27'1 0.3
2017-Jan-13 23:33N 34°34' E 135°25'0 0.1
2017-Jan-13 22:33N 34°33' E 135°25'0 0.1
2017-Jan-13 21:33N 34°33' E 135°25'0 0.0
2017-Jan-13 20:31N 34°33' E 135°25'0 0.1
2017-Jan-13 19:33N 34°33' E 135°25'0 0.1
2017-Jan-13 18:34N 34°33' E 135°25'0 0.1
2017-Jan-13 17:33N 34°33' E 135°25'0 0.1
2017-Jan-13 16:33N 34°33' E 135°25'0 0.1
2017-Jan-13 15:33N 34°33' E 135°25'0 0.0
2017-Jan-13 14:33N 34°33' E 135°25'0 0.0
2017-Jan-13 13:32N 34°33' E 135°25'0 0.0
2017-Jan-13 12:28N 34°34' E 135°25'0 0.0
2017-Jan-13 11:32N 34°34' E 135°25'0 0.1
2017-Jan-13 10:33N 34°33' E 135°25'0 0.1
2017-Jan-13 09:32N 34°34' E 135°25'0 0.1
2017-Jan-13 07:33N 34°33' E 135°25'0 0.1
2017-Jan-13 06:13N 34°34' E 135°25'0 0.2
2017-Jan-13 05:34N 34°33' E 135°25'0 0.1
2017-Jan-13 04:33N 34°33' E 135°25'0 0.2
2017-Jan-13 02:18N 34°33' E 135°25'4 5.0
2017-Jan-13 01:33N 34°33' E 135°20'5 1.2
2017-Jan-12 21:05N 34°33' E 135°27'0 0.0
2017-Jan-12 20:33N 34°33' E 135°27'0 0.0
2017-Jan-12 19:33N 34°33' E 135°27'0 0.0
2017-Jan-12 18:33N 34°33' E 135°27'0 0.0
2017-Jan-12 17:32N 34°33' E 135°27'0 0.0
2017-Jan-12 16:34N 34°33' E 135°27'0 0.0
2017-Jan-12 15:33N 34°33' E 135°27'0 0.0
2017-Jan-12 14:33N 34°33' E 135°27'0 0.0
2017-Jan-12 13:32N 34°33' E 135°27'0 0.0
2017-Jan-12 12:31N 34°33' E 135°27'1 0.1
2017-Jan-12 06:33N 34°33' E 135°26'0 0.1
2017-Jan-12 05:33N 34°33' E 135°26'0 0.3
2017-Jan-12 04:33N 34°33' E 135°26'4 4.4
2017-Jan-12 03:33N 34°34' E 135°20'3 3.4
2017-Jan-12 02:33N 34°33' E 135°24'2 1.8
2017-Jan-12 01:32N 34°33' E 135°27'3 3.3
2017-Jan-12 00:33N 34°33' E 135°23'0 0.5
2017-Jan-11 23:33N 34°34' E 135°23'3 3.0
2017-Jan-11 22:32N 34°33' E 135°27'  
Track history (hours):
 
Tides and Currents Weather Stations Pressure Air Temp Water Temp Dewpoint Dewpoint Depression Visibility Wind Speed Wind Dir Waves Ship Positions

Kasagimaru

Last reported at 2017-Jan-21 21:33 UTC. Time now 2017-Jan-21 21:42 UTC.
Position N 34°33' E 135°27'.

Length 42 m; draft 3.5 m.

Type: Tug. MMSI: 431300268.

Date/timePositionNaut miles runAvg speedWind from/ knotsBaromVisibWave heightAir tempDewpointWater temp
2017-Jan-21 21:33N 34°33' E 135°27'0 0.0
2017-Jan-21 20:33N 34°33' E 135°27'0 0.0
2017-Jan-21 17:30N 34°33' E 135°27'0 0.0
2017-Jan-21 09:30N 34°33' E 135°27'0 0.0
2017-Jan-21 08:33N 34°33' E 135°27'0 0.0
2017-Jan-21 07:33N 34°33' E 135°27'0 0.0
2017-Jan-21 06:32N 34°33' E 135°27'2 1.6
2017-Jan-21 05:26N 34°33' E 135°24'1 0.6
2017-Jan-21 04:26N 34°34' E 135°24'1 0.9
2017-Jan-21 03:33N 34°33' E 135°24'9 8.9
2017-Jan-21 02:33N 34°30' E 135°14'1412.9
2017-Jan-21 01:28N 34°20' E 135°02'1010.8
2017-Jan-21 00:33N 34°10' E 135°01'7 3.6
2017-Jan-20 22:33N 34°13' E 135°09'0 0.0
2017-Jan-20 21:33N 34°13' E 135°09'0 0.0
2017-Jan-20 20:33N 34°13' E 135°09'0 0.0
2017-Jan-20 19:33N 34°13' E 135°09'0 0.0
2017-Jan-20 18:33N 34°13' E 135°09'0 0.0
2017-Jan-20 17:33N 34°13' E 135°09'0 0.0
2017-Jan-20 16:33N 34°13' E 135°09'0 0.0
2017-Jan-20 15:33N 34°13' E 135°09'0 0.0
2017-Jan-20 14:33N 34°13' E 135°09'0 0.0
2017-Jan-20 13:33N 34°13' E 135°09'0 0.0
2017-Jan-20 12:33N 34°13' E 135°09'0 0.0
2017-Jan-20 11:33N 34°13' E 135°09'0 0.0
2017-Jan-20 10:33N 34°13' E 135°09'0 0.0
2017-Jan-20 09:33N 34°13' E 135°09'0 0.0
2017-Jan-20 08:33N 34°13' E 135°09'0 0.0
2017-Jan-20 07:33N 34°13' E 135°09'0 0.0
2017-Jan-20 06:33N 34°13' E 135°09'0 0.0
2017-Jan-20 05:33N 34°13' E 135°09'0 0.0
2017-Jan-20 04:33N 34°13' E 135°09'0 0.0
2017-Jan-20 03:34N 34°13' E 135°09'0 0.0
2017-Jan-20 02:33N 34°13' E 135°09'0 0.0
2017-Jan-20 01:33N 34°13' E 135°09'0 0.0
2017-Jan-20 00:33N 34°13' E 135°09'0 0.0
2017-Jan-19 23:33N 34°13' E 135°09'0 0.0
2017-Jan-19 22:33N 34°13' E 135°09'0 0.0
2017-Jan-19 21:33N 34°13' E 135°09'0 0.0
2017-Jan-19 20:33N 34°13' E 135°09'0 0.0
2017-Jan-19 19:33N 34°13' E 135°09'0 0.0
2017-Jan-19 18:33N 34°13' E 135°09'0 0.0
2017-Jan-19 17:33N 34°13' E 135°09'0 0.0
2017-Jan-19 16:33N 34°13' E 135°09'0 0.0
2017-Jan-19 15:33N 34°13' E 135°09'0 0.0
2017-Jan-19 14:33N 34°13' E 135°09'0 0.0
2017-Jan-19 13:33N 34°13' E 135°09'0 0.0
2017-Jan-19 12:33N 34°13' E 135°09'0 0.0
2017-Jan-19 11:33N 34°13' E 135°09'4 4.1
2017-Jan-19 10:33N 34°14' E 135°04'2010.1
2017-Jan-19 08:32N 34°34' E 135°06'8 1.8
2017-Jan-19 04:27N 34°38' E 134°58'1112.7
2017-Jan-19 03:33N 34°35' E 135°12'1211.7
2017-Jan-19 02:33N 34°33' E 135°26'1 0.2
2017-Jan-18 23:23N 34°33' E 135°27'0 0.0
2017-Jan-18 21:27N 34°33' E 135°27'0 0.0
2017-Jan-18 20:33N 34°33' E 135°27'0 0.0
2017-Jan-18 19:33N 34°33' E 135°27'0 0.0
2017-Jan-18 18:33N 34°33' E 135°27'0 0.0
2017-Jan-18 17:24N 34°33' E 135°27'0 0.0
2017-Jan-18 16:13N 34°33' E 135°27'0 0.0
2017-Jan-18 15:33N 34°33' E 135°27'0 0.0
2017-Jan-18 14:30N 34°33' E 135°27'0 0.0
2017-Jan-18 07:19N 34°33' E 135°27'1 0.8
2017-Jan-18 05:29N 34°33' E 135°25'4 4.3
2017-Jan-18 04:33N 34°33' E 135°20'3 2.9
2017-Jan-18 03:33N 34°32' E 135°23'1 0.4
2017-Jan-18 00:33N 34°33' E 135°23'2 1.6
2017-Jan-17 23:33N 34°33' E 135°25'1 0.9
2017-Jan-17 22:13N 34°33' E 135°27'0 0.0
2017-Jan-17 15:18N 34°33' E 135°27'0 0.0
2017-Jan-17 14:31N 34°33' E 135°27'0 0.0
2017-Jan-17 13:25N 34°33' E 135°27'0 0.0
2017-Jan-17 12:07N 34°33' E 135°27'0 0.0
2017-Jan-17 06:31N 34°33' E 135°26'14 3.6
2017-Jan-17 02:33N 34°28' E 135°10'1111.1
2017-Jan-17 01:33N 34°33' E 135°22'2 1.6
2017-Jan-17 00:28N 34°34' E 135°24'1 1.0
2017-Jan-16 23:33N 34°33' E 135°24'1 1.3
2017-Jan-16 22:25N 34°32' E 135°24'1 0.6
2017-Jan-16 21:28N 34°32' E 135°24'2 2.6
2017-Jan-16 20:32N 34°33' E 135°27'0 0.0
2017-Jan-16 19:28N 34°33' E 135°27'0 0.0
2017-Jan-16 18:30N 34°33' E 135°27'0 0.0
2017-Jan-16 17:33N 34°33' E 135°27'0 0.0
2017-Jan-16 16:32N 34°33' E 135°27'0 0.0
2017-Jan-16 15:33N 34°33' E 135°27'0 0.0
2017-Jan-16 14:31N 34°33' E 135°27'0 0.0
2017-Jan-16 13:33N 34°33' E 135°27'0 0.0
2017-Jan-16 12:33N 34°33' E 135°27'0 0.0
2017-Jan-16 11:33N 34°33' E 135°27'0 0.0
2017-Jan-16 10:33N 34°33' E 135°27'0 0.0
2017-Jan-16 09:33N 34°33' E 135°27'5 5.0
2017-Jan-16 08:33N 34°37' E 135°23'3 2.9
2017-Jan-16 07:34N 34°39' E 135°25'0 0.3
2017-Jan-16 06:33N 34°39' E 135°26'0 0.0
2017-Jan-16 05:33N 34°39' E 135°26'0 0.0
2017-Jan-16 04:34N 34°39' E 135°26'0 0.0
2017-Jan-16 03:26N 34°39' E 135°26'2 1.9
2017-Jan-16 02:34N 34°38' E 135°24'0 0.1
2017-Jan-16 01:33N 34°38' E 135°24'5 4.1
2017-Jan-16 00:26N 34°33' E 135°23'0 0.2
2017-Jan-15 23:33N 34°33' E 135°23'4 3.9
2017-Jan-15 22:30N 34°29' E 135°22'0 0.1
2017-Jan-15 21:24N 34°29' E 135°22'5 5.8
2017-Jan-15 20:28N 34°33' E 135°27'0 0.0
2017-Jan-15 19:33N 34°33' E 135°27'0 0.0
2017-Jan-15 18:31N 34°33' E 135°27'0 0.0
2017-Jan-15 17:32N 34°33' E 135°27'0 0.0
2017-Jan-15 16:33N 34°33' E 135°27'0 0.0
2017-Jan-15 15:33N 34°33' E 135°27'0 0.0
2017-Jan-15 14:33N 34°33' E 135°27'0 0.0
2017-Jan-15 13:33N 34°33' E 135°27'0 0.0
2017-Jan-15 12:30N 34°33' E 135°27'0 0.0
2017-Jan-15 11:17N 34°33' E 135°27'0 0.0
2017-Jan-15 10:32N 34°33' E 135°27'0 0.0
2017-Jan-15 09:29N 34°33' E 135°27'0 0.1
2017-Jan-15 06:26N 34°33' E 135°27'2 2.0
2017-Jan-15 05:30N 34°33' E 135°24'3 2.7
2017-Jan-15 04:28N 34°33' E 135°21'2 1.9
2017-Jan-15 03:33N 34°33' E 135°23'3 2.7
2017-Jan-15 02:27N 34°33' E 135°27'1 0.7
2017-Jan-15 01:33N 34°33' E 135°26'1 0.1
2017-Jan-14 21:10N 34°33' E 135°27'0 0.0
2017-Jan-14 19:32N 34°33' E 135°27'0 0.0
2017-Jan-14 18:30N 34°33' E 135°27'0 0.0
2017-Jan-14 17:28N 34°33' E 135°27'0 0.0
2017-Jan-14 16:32N 34°33' E 135°27'0 0.0
2017-Jan-14 15:30N 34°33' E 135°27'0 0.0
2017-Jan-14 06:33N 34°33' E 135°27'0 0.0
2017-Jan-14 05:33N 34°33' E 135°27'0 0.0
2017-Jan-14 04:33N 34°33' E 135°27'0 0.0
2017-Jan-14 03:32N 34°33' E 135°27'1 0.3
2017-Jan-13 23:33N 34°34' E 135°25'0 0.1
2017-Jan-13 22:33N 34°33' E 135°25'0 0.1
2017-Jan-13 21:33N 34°33' E 135°25'0 0.0
2017-Jan-13 20:31N 34°33' E 135°25'0 0.1
2017-Jan-13 19:33N 34°33' E 135°25'0 0.1
2017-Jan-13 18:34N 34°33' E 135°25'0 0.1
2017-Jan-13 17:33N 34°33' E 135°25'0 0.1
2017-Jan-13 16:33N 34°33' E 135°25'0 0.1
2017-Jan-13 15:33N 34°33' E 135°25'0 0.0
2017-Jan-13 14:33N 34°33' E 135°25'0 0.0
2017-Jan-13 13:32N 34°33' E 135°25'0 0.0
2017-Jan-13 12:28N 34°34' E 135°25'0 0.0
2017-Jan-13 11:32N 34°34' E 135°25'0 0.1
2017-Jan-13 10:33N 34°33' E 135°25'0 0.1
2017-Jan-13 09:32N 34°34' E 135°25'0 0.1
2017-Jan-13 07:33N 34°33' E 135°25'0 0.1
2017-Jan-13 06:13N 34°34' E 135°25'0 0.2
2017-Jan-13 05:34N 34°33' E 135°25'0 0.1
2017-Jan-13 04:33N 34°33' E 135°25'0 0.2
2017-Jan-13 02:18N 34°33' E 135°25'4 5.0
2017-Jan-13 01:33N 34°33' E 135°20'5 1.2
2017-Jan-12 21:05N 34°33' E 135°27'0 0.0
2017-Jan-12 20:33N 34°33' E 135°27'0 0.0
2017-Jan-12 19:33N 34°33' E 135°27'0 0.0
2017-Jan-12 18:33N 34°33' E 135°27'0 0.0
2017-Jan-12 17:32N 34°33' E 135°27'0 0.0
2017-Jan-12 16:34N 34°33' E 135°27'0 0.0
2017-Jan-12 15:33N 34°33' E 135°27'0 0.0
2017-Jan-12 14:33N 34°33' E 135°27'0 0.0
2017-Jan-12 13:32N 34°33' E 135°27'0 0.0
2017-Jan-12 12:31N 34°33' E 135°27'1 0.1
2017-Jan-12 06:33N 34°33' E 135°26'0 0.1
2017-Jan-12 05:33N 34°33' E 135°26'0 0.3
2017-Jan-12 04:33N 34°33' E 135°26'4 4.4
2017-Jan-12 03:33N 34°34' E 135°20'3 3.4
2017-Jan-12 02:33N 34°33' E 135°24'2 1.8
2017-Jan-12 01:32N 34°33' E 135°27'3 3.3
2017-Jan-12 00:33N 34°33' E 135°23'0 0.5
2017-Jan-11 23:33N 34°34' E 135°23'3 3.0
2017-Jan-11 22:32N 34°33' E 135°27'  

Dump ship's entire track history